sensor_id;sensor_type;location;lat;lon;timestamp;pressure;altitude;pressure_sealevel;temperature;humidity
2184;BME280;1098;48.940;8.962;2022-07-23T00:01:29;98428.81;;;24.91;67.00
2184;BME280;1098;48.940;8.962;2022-07-23T00:04:01;98427.38;;;25.02;65.86
2184;BME280;1098;48.940;8.962;2022-07-23T00:06:30;98417.78;;;24.99;66.12
2184;BME280;1098;48.940;8.962;2022-07-23T00:08:58;98422.44;;;24.82;67.74
2184;BME280;1098;48.940;8.962;2022-07-23T00:11:26;98422.75;;;24.80;67.71
2184;BME280;1098;48.940;8.962;2022-07-23T00:13:54;98418.19;;;24.76;67.54
2184;BME280;1098;48.940;8.962;2022-07-23T00:16:25;98420.00;;;24.80;67.13
2184;BME280;1098;48.940;8.962;2022-07-23T00:18:53;98418.19;;;24.67;68.43
2184;BME280;1098;48.940;8.962;2022-07-23T00:21:22;98415.75;;;24.74;67.34
2184;BME280;1098;48.940;8.962;2022-07-23T00:23:50;98416.41;;;24.71;67.93
2184;BME280;1098;48.940;8.962;2022-07-23T00:26:18;98418.84;;;24.73;67.48
2184;BME280;1098;48.940;8.962;2022-07-23T00:28:47;98420.91;;;24.58;69.31
2184;BME280;1098;48.940;8.962;2022-07-23T00:31:16;98421.44;;;24.69;67.83
2184;BME280;1098;48.940;8.962;2022-07-23T00:33:44;98428.03;;;24.51;69.66
2184;BME280;1098;48.940;8.962;2022-07-23T00:36:12;98418.34;;;24.71;68.36
2184;BME280;1098;48.940;8.962;2022-07-23T00:38:41;98419.75;;;24.51;70.44
2184;BME280;1098;48.940;8.962;2022-07-23T00:41:09;98416.59;;;24.35;70.54
2184;BME280;1098;48.940;8.962;2022-07-23T00:43:38;98412.19;;;24.25;73.22
2184;BME280;1098;48.940;8.962;2022-07-23T00:46:06;98418.41;;;24.40;72.05
2184;BME280;1098;48.940;8.962;2022-07-23T00:48:34;98425.56;;;24.10;74.94
2184;BME280;1098;48.940;8.962;2022-07-23T00:51:03;98421.81;;;23.83;77.47
2184;BME280;1098;48.940;8.962;2022-07-23T00:53:31;98402.09;;;23.68;77.65
2184;BME280;1098;48.940;8.962;2022-07-23T00:56:00;98428.66;;;23.86;77.57
2184;BME280;1098;48.940;8.962;2022-07-23T00:58:28;98426.25;;;23.93;77.60
2184;BME280;1098;48.940;8.962;2022-07-23T01:00:58;98420.50;;;23.81;76.30
2184;BME280;1098;48.940;8.962;2022-07-23T01:03:27;98429.03;;;23.71;79.58
2184;BME280;1098;48.940;8.962;2022-07-23T01:05:55;98432.13;;;23.69;79.49
2184;BME280;1098;48.940;8.962;2022-07-23T01:08:25;98429.41;;;23.55;83.22
2184;BME280;1098;48.940;8.962;2022-07-23T01:10:53;98426.25;;;23.48;83.80
2184;BME280;1098;48.940;8.962;2022-07-23T01:13:23;98417.53;;;23.33;82.37
2184;BME280;1098;48.940;8.962;2022-07-23T01:15:53;98418.88;;;23.57;82.58
2184;BME280;1098;48.940;8.962;2022-07-23T01:18:21;98414.31;;;23.53;81.15
2184;BME280;1098;48.940;8.962;2022-07-23T01:20:49;98400.31;;;23.27;84.73
2184;BME280;1098;48.940;8.962;2022-07-23T01:23:19;98388.09;;;23.42;81.03
2184;BME280;1098;48.940;8.962;2022-07-23T01:25:52;98376.88;;;23.60;79.60
2184;BME280;1098;48.940;8.962;2022-07-23T01:28:22;98377.88;;;23.64;79.33
2184;BME280;1098;48.940;8.962;2022-07-23T01:30:50;98382.13;;;23.48;80.39
2184;BME280;1098;48.940;8.962;2022-07-23T01:33:18;98389.81;;;23.38;80.74
2184;BME280;1098;48.940;8.962;2022-07-23T01:35:46;98393.78;;;23.45;82.22
2184;BME280;1098;48.940;8.962;2022-07-23T01:38:21;98386.50;;;23.72;78.22
2184;BME280;1098;48.940;8.962;2022-07-23T01:40:49;98385.38;;;23.50;80.92
2184;BME280;1098;48.940;8.962;2022-07-23T01:43:24;98391.38;;;23.66;80.04
2184;BME280;1098;48.940;8.962;2022-07-23T01:45:53;98394.44;;;23.64;78.95
2184;BME280;1098;48.940;8.962;2022-07-23T01:48:24;98402.72;;;23.51;78.93
2184;BME280;1098;48.940;8.962;2022-07-23T01:51:14;98398.84;;;23.29;80.97
2184;BME280;1098;48.940;8.962;2022-07-23T01:53:45;98403.91;;;23.14;80.96
2184;BME280;1098;48.940;8.962;2022-07-23T01:56:13;98405.84;;;23.13;81.11
2184;BME280;1098;48.940;8.962;2022-07-23T01:58:42;98409.44;;;23.36;79.54
2184;BME280;1098;48.940;8.962;2022-07-23T02:01:10;98416.19;;;23.30;81.04
2184;BME280;1098;48.940;8.962;2022-07-23T02:03:39;98412.50;;;23.35;80.16
2184;BME280;1098;48.940;8.962;2022-07-23T02:06:07;98415.13;;;23.53;80.24
2184;BME280;1098;48.940;8.962;2022-07-23T02:08:35;98400.75;;;23.43;78.56
2184;BME280;1098;48.940;8.962;2022-07-23T02:11:05;98390.06;;;23.05;81.03
2184;BME280;1098;48.940;8.962;2022-07-23T02:13:33;98398.97;;;22.88;84.89
2184;BME280;1098;48.940;8.962;2022-07-23T02:16:01;98393.38;;;22.80;86.72
2184;BME280;1098;48.940;8.962;2022-07-23T02:18:29;98405.22;;;22.80;89.24
2184;BME280;1098;48.940;8.962;2022-07-23T02:20:57;98402.53;;;22.75;87.72
2184;BME280;1098;48.940;8.962;2022-07-23T02:23:27;98417.56;;;22.83;87.29
2184;BME280;1098;48.940;8.962;2022-07-23T02:25:55;98422.88;;;22.79;88.16
2184;BME280;1098;48.940;8.962;2022-07-23T02:28:24;98433.97;;;22.74;87.00
2184;BME280;1098;48.940;8.962;2022-07-23T02:30:52;98446.53;;;22.80;88.97
2184;BME280;1098;48.940;8.962;2022-07-23T02:33:21;98448.66;;;22.42;92.15
2184;BME280;1098;48.940;8.962;2022-07-23T02:35:49;98454.06;;;22.34;94.28
2184;BME280;1098;48.940;8.962;2022-07-23T02:38:18;98457.75;;;22.43;92.85
2184;BME280;1098;48.940;8.962;2022-07-23T02:40:47;98467.72;;;22.39;93.64
2184;BME280;1098;48.940;8.962;2022-07-23T02:43:17;98476.50;;;22.41;91.67
2184;BME280;1098;48.940;8.962;2022-07-23T02:45:46;98477.63;;;22.40;91.53
2184;BME280;1098;48.940;8.962;2022-07-23T02:48:15;98479.47;;;22.58;87.89
2184;BME280;1098;48.940;8.962;2022-07-23T02:50:47;98476.06;;;22.47;89.65
2184;BME280;1098;48.940;8.962;2022-07-23T02:53:22;98482.38;;;22.20;90.54
2184;BME280;1098;48.940;8.962;2022-07-23T02:55:50;98475.09;;;22.43;88.92
2184;BME280;1098;48.940;8.962;2022-07-23T02:58:18;98467.34;;;22.59;87.61
2184;BME280;1098;48.940;8.962;2022-07-23T03:00:49;98468.44;;;22.58;85.38
2184;BME280;1098;48.940;8.962;2022-07-23T03:03:20;98476.19;;;22.70;83.77
2184;BME280;1098;48.940;8.962;2022-07-23T03:05:54;98485.75;;;22.45;85.80
2184;BME280;1098;48.940;8.962;2022-07-23T03:08:22;98486.91;;;22.44;85.18
2184;BME280;1098;48.940;8.962;2022-07-23T03:10:51;98494.22;;;22.35;87.52
2184;BME280;1098;48.940;8.962;2022-07-23T03:13:19;98494.91;;;22.13;89.57
2184;BME280;1098;48.940;8.962;2022-07-23T03:15:47;98489.22;;;22.23;89.46
2184;BME280;1098;48.940;8.962;2022-07-23T03:18:17;98480.25;;;22.45;88.13
2184;BME280;1098;48.940;8.962;2022-07-23T03:20:45;98485.16;;;22.34;83.71
2184;BME280;1098;48.940;8.962;2022-07-23T03:23:13;98485.66;;;22.36;84.12
2184;BME280;1098;48.940;8.962;2022-07-23T03:25:41;98501.06;;;22.51;83.54
2184;BME280;1098;48.940;8.962;2022-07-23T03:28:10;98488.63;;;22.40;83.88
2184;BME280;1098;48.940;8.962;2022-07-23T03:30:38;98499.06;;;22.10;86.97
2184;BME280;1098;48.940;8.962;2022-07-23T03:33:06;98498.41;;;22.32;83.95
2184;BME280;1098;48.940;8.962;2022-07-23T03:35:35;98504.59;;;22.24;86.18
2184;BME280;1098;48.940;8.962;2022-07-23T03:38:18;98505.47;;;22.52;82.69
2184;BME280;1098;48.940;8.962;2022-07-23T03:40:47;98490.22;;;22.27;82.14
2184;BME280;1098;48.940;8.962;2022-07-23T03:43:15;98486.78;;;22.49;82.86
2184;BME280;1098;48.940;8.962;2022-07-23T03:45:44;98499.19;;;22.19;86.01
2184;BME280;1098;48.940;8.962;2022-07-23T03:48:12;98506.19;;;22.44;86.79
2184;BME280;1098;48.940;8.962;2022-07-23T03:50:41;98507.44;;;22.65;88.18
2184;BME280;1098;48.940;8.962;2022-07-23T03:53:10;98503.84;;;22.65;86.40
2184;BME280;1098;48.940;8.962;2022-07-23T03:55:38;98500.78;;;22.52;87.90
2184;BME280;1098;48.940;8.962;2022-07-23T03:58:06;98508.44;;;22.09;92.46
2184;BME280;1098;48.940;8.962;2022-07-23T04:00:34;98505.31;;;21.97;95.69
2184;BME280;1098;48.940;8.962;2022-07-23T04:03:02;98509.97;;;22.02;91.02
2184;BME280;1098;48.940;8.962;2022-07-23T04:05:32;98516.50;;;21.68;100.00
2184;BME280;1098;48.940;8.962;2022-07-23T04:08:06;98509.69;;;21.47;100.00
2184;BME280;1098;48.940;8.962;2022-07-23T04:10:38;98515.84;;;21.57;99.11
2184;BME280;1098;48.940;8.962;2022-07-23T04:13:08;98517.41;;;21.64;97.29
2184;BME280;1098;48.940;8.962;2022-07-23T04:15:36;98524.75;;;21.49;100.00
2184;BME280;1098;48.940;8.962;2022-07-23T04:18:05;98521.84;;;21.97;97.99
2184;BME280;1098;48.940;8.962;2022-07-23T04:20:47;98520.16;;;21.64;96.79
2184;BME280;1098;48.940;8.962;2022-07-23T04:23:17;98528.03;;;21.51;98.02
2184;BME280;1098;48.940;8.962;2022-07-23T04:25:46;98525.28;;;21.70;97.58
2184;BME280;1098;48.940;8.962;2022-07-23T04:28:15;98522.38;;;21.61;98.90
2184;BME280;1098;48.940;8.962;2022-07-23T04:30:45;98517.78;;;21.76;96.94
2184;BME280;1098;48.940;8.962;2022-07-23T04:33:15;98520.66;;;21.47;99.43
2184;BME280;1098;48.940;8.962;2022-07-23T04:35:47;98520.00;;;21.74;98.03
2184;BME280;1098;48.940;8.962;2022-07-23T04:38:21;98527.78;;;21.85;97.98
2184;BME280;1098;48.940;8.962;2022-07-23T04:40:53;98542.44;;;21.43;100.00
2184;BME280;1098;48.940;8.962;2022-07-23T04:43:23;98548.09;;;21.33;100.00
2184;BME280;1098;48.940;8.962;2022-07-23T04:45:53;98550.66;;;21.24;100.00
2184;BME280;1098;48.940;8.962;2022-07-23T04:48:21;98556.97;;;21.25;100.00
2184;BME280;1098;48.940;8.962;2022-07-23T04:50:57;98556.09;;;21.30;100.00
2184;BME280;1098;48.940;8.962;2022-07-23T04:53:29;98557.09;;;21.39;100.00
2184;BME280;1098;48.940;8.962;2022-07-23T04:56:00;98572.13;;;21.22;100.00
2184;BME280;1098;48.940;8.962;2022-07-23T04:58:30;98574.28;;;21.02;100.00
2184;BME280;1098;48.940;8.962;2022-07-23T05:00:59;98556.38;;;21.04;100.00
2184;BME280;1098;48.940;8.962;2022-07-23T05:03:29;98551.03;;;21.18;100.00
2184;BME280;1098;48.940;8.962;2022-07-23T05:05:57;98544.94;;;21.21;100.00
2184;BME280;1098;48.940;8.962;2022-07-23T05:08:26;98541.84;;;21.27;100.00
2184;BME280;1098;48.940;8.962;2022-07-23T05:10:59;98551.50;;;21.44;100.00
2184;BME280;1098;48.940;8.962;2022-07-23T05:13:28;98558.34;;;21.84;99.76
2184;BME280;1098;48.940;8.962;2022-07-23T05:15:57;98564.00;;;21.92;98.11
2184;BME280;1098;48.940;8.962;2022-07-23T05:18:25;98564.06;;;22.06;98.35
2184;BME280;1098;48.940;8.962;2022-07-23T05:20:53;98570.91;;;22.09;98.21
2184;BME280;1098;48.940;8.962;2022-07-23T05:23:22;98574.25;;;22.06;100.00
2184;BME280;1098;48.940;8.962;2022-07-23T05:25:51;98577.25;;;22.42;97.88
2184;BME280;1098;48.940;8.962;2022-07-23T05:28:24;98568.78;;;22.38;91.41
2184;BME280;1098;48.940;8.962;2022-07-23T05:30:53;98574.38;;;22.01;96.23
2184;BME280;1098;48.940;8.962;2022-07-23T05:33:22;98580.88;;;21.86;96.04
2184;BME280;1098;48.940;8.962;2022-07-23T05:35:51;98597.84;;;22.12;98.72
2184;BME280;1098;48.940;8.962;2022-07-23T05:38:28;98608.25;;;21.96;99.37
2184;BME280;1098;48.940;8.962;2022-07-23T05:40:58;98615.16;;;21.93;99.08
2184;BME280;1098;48.940;8.962;2022-07-23T05:43:29;98607.94;;;21.98;99.16
2184;BME280;1098;48.940;8.962;2022-07-23T05:46:01;98608.03;;;21.74;100.00
2184;BME280;1098;48.940;8.962;2022-07-23T05:48:34;98595.38;;;21.91;100.00
2184;BME280;1098;48.940;8.962;2022-07-23T05:51:07;98610.97;;;22.01;100.00
2184;BME280;1098;48.940;8.962;2022-07-23T05:53:35;98615.97;;;21.75;99.25
2184;BME280;1098;48.940;8.962;2022-07-23T05:56:14;98623.47;;;21.88;97.99
2184;BME280;1098;48.940;8.962;2022-07-23T05:58:44;98615.00;;;21.66;100.00
2184;BME280;1098;48.940;8.962;2022-07-23T06:01:14;98606.97;;;21.51;100.00
2184;BME280;1098;48.940;8.962;2022-07-23T06:03:53;98601.63;;;21.59;100.00
2184;BME280;1098;48.940;8.962;2022-07-23T06:06:26;98595.69;;;21.71;100.00
2184;BME280;1098;48.940;8.962;2022-07-23T06:08:55;98597.81;;;21.37;100.00
2184;BME280;1098;48.940;8.962;2022-07-23T06:11:26;98576.38;;;21.10;100.00
2184;BME280;1098;48.940;8.962;2022-07-23T06:13:56;98604.63;;;21.15;100.00
2184;BME280;1098;48.940;8.962;2022-07-23T06:16:35;98599.31;;;21.24;100.00
2184;BME280;1098;48.940;8.962;2022-07-23T06:19:05;98599.66;;;20.93;100.00
2184;BME280;1098;48.940;8.962;2022-07-23T06:21:33;98595.25;;;20.69;100.00
2184;BME280;1098;48.940;8.962;2022-07-23T06:24:14;98604.72;;;20.81;100.00
2184;BME280;1098;48.940;8.962;2022-07-23T06:26:42;98612.47;;;21.70;100.00
2184;BME280;1098;48.940;8.962;2022-07-23T06:29:12;98619.75;;;21.60;100.00
2184;BME280;1098;48.940;8.962;2022-07-23T06:31:41;98638.63;;;21.24;100.00
2184;BME280;1098;48.940;8.962;2022-07-23T06:34:10;98650.78;;;21.18;100.00
2184;BME280;1098;48.940;8.962;2022-07-23T06:36:38;98671.06;;;21.22;100.00
2184;BME280;1098;48.940;8.962;2022-07-23T06:39:11;98709.31;;;20.90;100.00
2184;BME280;1098;48.940;8.962;2022-07-23T06:41:43;98710.28;;;20.70;100.00
2184;BME280;1098;48.940;8.962;2022-07-23T06:44:18;98735.69;;;20.57;100.00
2184;BME280;1098;48.940;8.962;2022-07-23T06:46:48;98747.13;;;19.61;100.00
2184;BME280;1098;48.940;8.962;2022-07-23T06:49:16;98777.31;;;19.30;100.00
2184;BME280;1098;48.940;8.962;2022-07-23T06:51:44;98765.50;;;19.45;100.00
2184;BME280;1098;48.940;8.962;2022-07-23T06:54:15;98781.41;;;19.48;100.00
2184;BME280;1098;48.940;8.962;2022-07-23T06:56:43;98780.59;;;19.27;100.00
2184;BME280;1098;48.940;8.962;2022-07-23T06:59:11;98753.22;;;19.22;100.00
2184;BME280;1098;48.940;8.962;2022-07-23T07:01:41;98751.50;;;19.62;100.00
2184;BME280;1098;48.940;8.962;2022-07-23T07:04:09;98749.63;;;19.52;100.00
2184;BME280;1098;48.940;8.962;2022-07-23T07:06:37;98737.16;;;19.80;100.00
2184;BME280;1098;48.940;8.962;2022-07-23T07:09:07;98737.53;;;19.58;100.00
2184;BME280;1098;48.940;8.962;2022-07-23T07:11:35;98721.44;;;19.96;100.00
2184;BME280;1098;48.940;8.962;2022-07-23T07:14:03;98724.59;;;19.74;100.00
2184;BME280;1098;48.940;8.962;2022-07-23T07:16:32;98733.47;;;19.50;100.00
2184;BME280;1098;48.940;8.962;2022-07-23T07:19:01;98730.13;;;19.59;100.00
2184;BME280;1098;48.940;8.962;2022-07-23T07:21:30;98723.69;;;19.94;100.00
2184;BME280;1098;48.940;8.962;2022-07-23T07:23:58;98712.22;;;19.76;100.00
2184;BME280;1098;48.940;8.962;2022-07-23T07:26:26;98707.22;;;20.38;100.00
2184;BME280;1098;48.940;8.962;2022-07-23T07:28:57;98692.34;;;20.05;100.00
2184;BME280;1098;48.940;8.962;2022-07-23T07:31:26;98702.91;;;20.27;100.00
2184;BME280;1098;48.940;8.962;2022-07-23T07:33:56;98696.81;;;21.03;100.00
2184;BME280;1098;48.940;8.962;2022-07-23T07:36:26;98695.59;;;21.85;100.00
2184;BME280;1098;48.940;8.962;2022-07-23T07:38:54;98685.31;;;22.15;100.00
2184;BME280;1098;48.940;8.962;2022-07-23T07:41:23;98696.25;;;22.39;100.00
2184;BME280;1098;48.940;8.962;2022-07-23T07:43:52;98686.50;;;22.09;100.00
2184;BME280;1098;48.940;8.962;2022-07-23T07:46:20;98697.09;;;22.02;100.00
2184;BME280;1098;48.940;8.962;2022-07-23T07:48:51;98710.53;;;22.03;100.00
2184;BME280;1098;48.940;8.962;2022-07-23T07:51:24;98707.72;;;22.08;100.00
2184;BME280;1098;48.940;8.962;2022-07-23T07:53:55;98711.75;;;21.92;100.00
2184;BME280;1098;48.940;8.962;2022-07-23T07:56:24;98734.84;;;21.72;100.00
2184;BME280;1098;48.940;8.962;2022-07-23T07:58:52;98743.09;;;21.19;100.00
2184;BME280;1098;48.940;8.962;2022-07-23T08:01:20;98743.94;;;20.86;100.00
2184;BME280;1098;48.940;8.962;2022-07-23T08:03:49;98756.31;;;20.83;100.00
2184;BME280;1098;48.940;8.962;2022-07-23T08:06:17;98746.03;;;20.65;100.00
2184;BME280;1098;48.940;8.962;2022-07-23T08:08:49;98744.78;;;20.81;100.00
2184;BME280;1098;48.940;8.962;2022-07-23T08:11:18;98762.06;;;20.87;100.00
2184;BME280;1098;48.940;8.962;2022-07-23T08:13:46;98760.88;;;20.59;100.00
2184;BME280;1098;48.940;8.962;2022-07-23T08:16:14;98788.50;;;20.34;100.00
2184;BME280;1098;48.940;8.962;2022-07-23T08:18:42;98782.91;;;20.54;100.00
2184;BME280;1098;48.940;8.962;2022-07-23T08:21:11;98784.31;;;20.51;100.00
2184;BME280;1098;48.940;8.962;2022-07-23T08:23:39;98769.28;;;20.34;100.00
2184;BME280;1098;48.940;8.962;2022-07-23T08:26:07;98778.00;;;20.46;100.00
2184;BME280;1098;48.940;8.962;2022-07-23T08:28:36;98781.03;;;20.83;100.00
2184;BME280;1098;48.940;8.962;2022-07-23T08:31:04;98780.47;;;20.47;100.00
2184;BME280;1098;48.940;8.962;2022-07-23T08:33:33;98778.75;;;20.96;100.00
2184;BME280;1098;48.940;8.962;2022-07-23T08:36:02;98771.97;;;21.17;100.00
2184;BME280;1098;48.940;8.962;2022-07-23T08:38:31;98739.34;;;21.39;100.00
2184;BME280;1098;48.940;8.962;2022-07-23T08:41:02;98742.75;;;21.79;100.00
2184;BME280;1098;48.940;8.962;2022-07-23T08:43:31;98746.78;;;21.05;100.00
2184;BME280;1098;48.940;8.962;2022-07-23T08:46:02;98732.25;;;22.05;100.00
2184;BME280;1098;48.940;8.962;2022-07-23T08:48:31;98731.47;;;22.23;100.00
2184;BME280;1098;48.940;8.962;2022-07-23T08:51:00;98731.84;;;23.19;100.00
2184;BME280;1098;48.940;8.962;2022-07-23T08:53:30;98723.34;;;23.02;100.00
2184;BME280;1098;48.940;8.962;2022-07-23T08:55:59;98718.19;;;23.27;100.00
2184;BME280;1098;48.940;8.962;2022-07-23T08:58:29;98715.47;;;22.44;100.00
2184;BME280;1098;48.940;8.962;2022-07-23T09:00:57;98718.97;;;23.01;100.00
2184;BME280;1098;48.940;8.962;2022-07-23T09:03:31;98713.34;;;23.66;100.00
2184;BME280;1098;48.940;8.962;2022-07-23T09:06:01;98708.53;;;23.71;100.00
2184;BME280;1098;48.940;8.962;2022-07-23T09:08:35;98702.72;;;23.59;100.00
2184;BME280;1098;48.940;8.962;2022-07-23T09:11:05;98704.34;;;23.60;100.00
2184;BME280;1098;48.940;8.962;2022-07-23T09:13:37;98702.03;;;24.17;100.00
2184;BME280;1098;48.940;8.962;2022-07-23T09:16:09;98716.06;;;23.93;100.00
2184;BME280;1098;48.940;8.962;2022-07-23T09:18:43;98708.53;;;23.71;100.00
2184;BME280;1098;48.940;8.962;2022-07-23T09:21:23;98699.84;;;23.64;100.00
2184;BME280;1098;48.940;8.962;2022-07-23T09:23:56;98720.63;;;23.29;100.00
2184;BME280;1098;48.940;8.962;2022-07-23T09:26:36;98713.75;;;23.86;100.00
2184;BME280;1098;48.940;8.962;2022-07-23T09:29:08;98706.06;;;23.70;100.00
2184;BME280;1098;48.940;8.962;2022-07-23T09:31:46;98705.78;;;23.57;100.00
2184;BME280;1098;48.940;8.962;2022-07-23T09:34:19;98703.66;;;24.31;100.00
2184;BME280;1098;48.940;8.962;2022-07-23T09:36:51;98702.72;;;24.22;100.00
2184;BME280;1098;48.940;8.962;2022-07-23T09:39:26;98705.69;;;24.12;100.00
2184;BME280;1098;48.940;8.962;2022-07-23T09:41:55;98698.44;;;24.30;100.00
2184;BME280;1098;48.940;8.962;2022-07-23T09:44:25;98699.38;;;24.25;100.00
2184;BME280;1098;48.940;8.962;2022-07-23T09:46:59;98702.91;;;23.62;100.00
2184;BME280;1098;48.940;8.962;2022-07-23T09:49:30;98700.91;;;24.31;100.00
2184;BME280;1098;48.940;8.962;2022-07-23T09:51:59;98707.25;;;24.54;100.00
2184;BME280;1098;48.940;8.962;2022-07-23T09:54:31;98706.38;;;24.45;100.00
2184;BME280;1098;48.940;8.962;2022-07-23T09:57:03;98706.28;;;24.73;100.00
2184;BME280;1098;48.940;8.962;2022-07-23T09:59:36;98707.94;;;24.82;100.00
2184;BME280;1098;48.940;8.962;2022-07-23T10:02:09;98704.19;;;25.00;100.00
2184;BME280;1098;48.940;8.962;2022-07-23T10:04:57;98709.59;;;25.06;100.00
2184;BME280;1098;48.940;8.962;2022-07-23T10:07:45;98705.09;;;25.18;100.00
2184;BME280;1098;48.940;8.962;2022-07-23T10:10:39;98700.72;;;24.95;100.00
2184;BME280;1098;48.940;8.962;2022-07-23T10:13:30;98698.09;;;25.12;92.86
2184;BME280;1098;48.940;8.962;2022-07-23T10:16:18;98704.28;;;25.18;97.32
2184;BME280;1098;48.940;8.962;2022-07-23T10:18:55;98696.44;;;25.82;89.42
2184;BME280;1098;48.940;8.962;2022-07-23T10:21:30;98700.66;;;25.79;89.75
2184;BME280;1098;48.940;8.962;2022-07-23T10:24:11;98704.66;;;25.56;100.00
2184;BME280;1098;48.940;8.962;2022-07-23T10:26:47;98707.00;;;25.40;96.73
2184;BME280;1098;48.940;8.962;2022-07-23T10:29:32;98698.56;;;25.76;91.26
2184;BME280;1098;48.940;8.962;2022-07-23T10:32:13;98694.66;;;25.46;97.69
2184;BME280;1098;48.940;8.962;2022-07-23T10:34:52;98700.72;;;25.57;100.00
2184;BME280;1098;48.940;8.962;2022-07-23T10:37:29;98699.38;;;25.85;91.52
2184;BME280;1098;48.940;8.962;2022-07-23T10:40:14;98688.44;;;25.72;84.25
2184;BME280;1098;48.940;8.962;2022-07-23T10:42:45;98684.81;;;26.37;93.03
2184;BME280;1098;48.940;8.962;2022-07-23T10:45:27;98684.81;;;26.54;82.64
2184;BME280;1098;48.940;8.962;2022-07-23T10:48:12;98693.13;;;26.45;85.04
2184;BME280;1098;48.940;8.962;2022-07-23T10:50:42;98693.78;;;26.51;85.23
2184;BME280;1098;48.940;8.962;2022-07-23T10:53:13;98690.00;;;26.64;84.12
2184;BME280;1098;48.940;8.962;2022-07-23T10:55:43;98686.47;;;26.38;81.21
2184;BME280;1098;48.940;8.962;2022-07-23T10:58:16;98697.53;;;26.55;75.34
2184;BME280;1098;48.940;8.962;2022-07-23T11:00:46;98685.94;;;26.44;75.71
2184;BME280;1098;48.940;8.962;2022-07-23T11:03:28;98685.78;;;26.41;78.80
2184;BME280;1098;48.940;8.962;2022-07-23T11:05:57;98692.28;;;26.62;77.60
2184;BME280;1098;48.940;8.962;2022-07-23T11:08:26;98691.50;;;26.44;83.35
2184;BME280;1098;48.940;8.962;2022-07-23T11:10:55;98693.22;;;25.97;83.83
2184;BME280;1098;48.940;8.962;2022-07-23T11:16:18;98691.97;;;26.72;77.84
2184;BME280;1098;48.940;8.962;2022-07-23T11:18:57;98693.44;;;26.95;88.67
2184;BME280;1098;48.940;8.962;2022-07-23T11:24:25;98688.56;;;26.58;76.31
2184;BME280;1098;48.940;8.962;2022-07-23T11:26:59;98674.34;;;26.08;80.23
2184;BME280;1098;48.940;8.962;2022-07-23T11:29:37;98675.00;;;26.65;77.16
2184;BME280;1098;48.940;8.962;2022-07-23T11:32:20;98677.41;;;27.10;78.67
2184;BME280;1098;48.940;8.962;2022-07-23T11:34:52;98672.34;;;27.12;77.49
2184;BME280;1098;48.940;8.962;2022-07-23T11:37:29;98681.50;;;27.59;79.42
2184;BME280;1098;48.940;8.962;2022-07-23T11:40:00;98670.22;;;27.17;74.76
2184;BME280;1098;48.940;8.962;2022-07-23T11:42:29;98676.97;;;27.37;77.88
2184;BME280;1098;48.940;8.962;2022-07-23T11:44:57;98667.34;;;26.96;80.32
2184;BME280;1098;48.940;8.962;2022-07-23T11:47:26;98674.03;;;26.95;74.68
2184;BME280;1098;48.940;8.962;2022-07-23T11:49:55;98670.88;;;27.06;79.08
2184;BME280;1098;48.940;8.962;2022-07-23T11:52:24;98664.22;;;26.98;84.19
2184;BME280;1098;48.940;8.962;2022-07-23T11:54:53;98662.94;;;27.42;79.24
2184;BME280;1098;48.940;8.962;2022-07-23T11:57:25;98660.03;;;27.30;80.99
2184;BME280;1098;48.940;8.962;2022-07-23T11:59:55;98664.59;;;27.34;73.11
2184;BME280;1098;48.940;8.962;2022-07-23T12:02:23;98660.47;;;26.85;73.45
2184;BME280;1098;48.940;8.962;2022-07-23T12:04:53;98661.56;;;27.10;75.87
2184;BME280;1098;48.940;8.962;2022-07-23T12:07:22;98657.75;;;27.23;72.28
2184;BME280;1098;48.940;8.962;2022-07-23T12:09:50;98652.03;;;27.66;69.53
2184;BME280;1098;48.940;8.962;2022-07-23T12:12:19;98656.75;;;27.75;67.70
2184;BME280;1098;48.940;8.962;2022-07-23T12:14:51;98653.09;;;27.07;68.55
2184;BME280;1098;48.940;8.962;2022-07-23T12:17:20;98652.72;;;28.14;64.22
2184;BME280;1098;48.940;8.962;2022-07-23T12:19:49;98652.72;;;28.14;63.64
2184;BME280;1098;48.940;8.962;2022-07-23T12:22:17;98653.84;;;27.92;64.70
2184;BME280;1098;48.940;8.962;2022-07-23T12:24:55;98650.53;;;27.98;63.95
2184;BME280;1098;48.940;8.962;2022-07-23T12:27:24;98654.72;;;28.34;60.30
2184;BME280;1098;48.940;8.962;2022-07-23T12:29:56;98651.75;;;27.89;64.41
2184;BME280;1098;48.940;8.962;2022-07-23T12:32:27;98648.66;;;28.32;67.56
2184;BME280;1098;48.940;8.962;2022-07-23T12:35:03;98651.63;;;28.48;63.39
2184;BME280;1098;48.940;8.962;2022-07-23T12:37:32;98654.53;;;28.10;65.96
2184;BME280;1098;48.940;8.962;2022-07-23T12:40:20;98650.25;;;27.91;63.35
2184;BME280;1098;48.940;8.962;2022-07-23T12:42:49;98649.69;;;27.01;64.26
2184;BME280;1098;48.940;8.962;2022-07-23T12:45:19;98651.09;;;28.33;64.66
2184;BME280;1098;48.940;8.962;2022-07-23T12:47:59;98648.66;;;27.52;64.96
2184;BME280;1098;48.940;8.962;2022-07-23T12:50:38;98647.44;;;27.70;64.85
2184;BME280;1098;48.940;8.962;2022-07-23T12:53:08;98650.53;;;27.78;62.37
2184;BME280;1098;48.940;8.962;2022-07-23T12:55:43;98652.94;;;28.29;59.54
2184;BME280;1098;48.940;8.962;2022-07-23T12:58:45;98663.50;;;27.86;57.07
2184;BME280;1098;48.940;8.962;2022-07-23T13:01:26;98650.28;;;27.62;56.66
2184;BME280;1098;48.940;8.962;2022-07-23T13:03:56;98648.75;;;27.35;57.37
2184;BME280;1098;48.940;8.962;2022-07-23T13:06:25;98657.03;;;27.82;56.26
2184;BME280;1098;48.940;8.962;2022-07-23T13:08:53;98653.66;;;28.59;55.70
2184;BME280;1098;48.940;8.962;2022-07-23T13:11:22;98642.94;;;28.08;57.71
2184;BME280;1098;48.940;8.962;2022-07-23T13:13:50;98639.13;;;27.32;56.53
2184;BME280;1098;48.940;8.962;2022-07-23T13:16:19;98643.88;;;28.74;54.30
2184;BME280;1098;48.940;8.962;2022-07-23T13:18:49;98655.56;;;29.13;56.87
2184;BME280;1098;48.940;8.962;2022-07-23T13:21:17;98650.56;;;28.73;54.59
2184;BME280;1098;48.940;8.962;2022-07-23T13:23:46;98643.34;;;28.81;58.96
2184;BME280;1098;48.940;8.962;2022-07-23T13:26:17;98641.16;;;28.86;53.51
2184;BME280;1098;48.940;8.962;2022-07-23T13:28:46;98651.69;;;28.60;53.16
2184;BME280;1098;48.940;8.962;2022-07-23T13:31:14;98643.94;;;28.32;53.39
2184;BME280;1098;48.940;8.962;2022-07-23T13:33:42;98642.34;;;28.64;53.82
2184;BME280;1098;48.940;8.962;2022-07-23T13:36:12;98648.50;;;29.03;53.73
2184;BME280;1098;48.940;8.962;2022-07-23T13:38:41;98644.41;;;28.88;52.68
2184;BME280;1098;48.940;8.962;2022-07-23T13:41:09;98653.25;;;29.02;51.52
2184;BME280;1098;48.940;8.962;2022-07-23T13:43:41;98645.59;;;28.99;52.03